createdAt,value
2019-03-01T00:01:19.396Z,9.50
2019-03-01T00:03:48.562Z,10.65
2019-03-01T00:06:23.262Z,8.27
2019-03-01T00:09:03.600Z,10.45
2019-03-01T00:11:59.210Z,11.75
2019-03-01T00:14:31.947Z,10.05
2019-03-01T00:17:01.760Z,9.55
2019-03-01T00:19:30.954Z,8.00
2019-03-01T00:22:15.711Z,9.52
2019-03-01T00:24:46.652Z,11.30
2019-03-01T00:27:27.759Z,8.07
2019-03-01T00:30:13.615Z,9.73
2019-03-01T00:32:49.400Z,10.68
2019-03-01T00:35:25.219Z,12.25
2019-03-01T00:37:54.533Z,10.65
2019-03-01T00:40:22.831Z,11.10
2019-03-01T00:42:56.539Z,10.30
2019-03-01T00:45:25.627Z,6.82
2019-03-01T00:47:53.866Z,9.57
2019-03-01T00:50:22.148Z,10.10
2019-03-01T00:52:50.436Z,11.52
2019-03-01T00:55:18.727Z,7.35
2019-03-01T00:57:47.069Z,8.60
2019-03-01T01:00:17.180Z,8.52
2019-03-01T01:02:45.442Z,10.40
2019-03-01T01:05:13.748Z,7.93
2019-03-01T01:07:42.023Z,8.38
2019-03-01T01:10:10.307Z,8.43
2019-03-01T01:12:38.673Z,10.20
2019-03-01T01:15:07.065Z,10.23
2019-03-01T01:17:35.323Z,5.93
2019-03-01T01:20:06.542Z,7.53
2019-03-01T01:22:35.562Z,7.20
2019-03-01T01:25:03.841Z,7.05
2019-03-01T01:27:32.104Z,8.80
2019-03-01T01:30:00.487Z,7.37
2019-03-01T01:32:28.864Z,7.80
2019-03-01T01:34:57.147Z,7.95
2019-03-01T01:37:25.541Z,7.37
2019-03-01T01:39:55.433Z,7.25
2019-03-01T01:42:23.820Z,8.35
2019-03-01T01:44:52.103Z,8.00
2019-03-01T01:47:20.388Z,6.62
2019-03-01T01:49:48.660Z,5.87
2019-03-01T01:52:18.440Z,8.00
2019-03-01T01:54:46.723Z,7.40
2019-03-01T01:57:15.009Z,6.82
2019-03-01T01:59:43.271Z,4.35
2019-03-01T02:02:11.559Z,8.35
2019-03-01T02:04:39.918Z,6.93
2019-03-01T02:07:08.214Z,8.48
2019-03-01T02:09:36.484Z,5.70
2019-03-01T02:12:04.752Z,8.85
2019-03-01T02:14:33.025Z,7.15
2019-03-01T02:17:01.310Z,8.70
2019-03-01T02:19:29.694Z,6.20
2019-03-01T02:21:57.963Z,6.18
2019-03-01T02:24:26.335Z,6.65
2019-03-01T02:27:19.417Z,5.87
2019-03-01T02:29:47.691Z,7.40
2019-03-01T02:32:16.060Z,4.90
2019-03-01T02:34:44.364Z,7.13
2019-03-01T02:37:12.593Z,6.28
2019-03-01T02:39:40.865Z,8.35
2019-03-01T02:42:09.248Z,8.52
2019-03-01T02:44:37.518Z,5.28
2019-03-01T02:47:05.805Z,6.03
2019-03-01T02:49:34.064Z,5.80
2019-03-01T02:52:02.355Z,4.28
2019-03-01T02:54:30.632Z,7.07
2019-03-01T02:56:59.000Z,5.47
2019-03-01T02:59:27.287Z,6.20
2019-03-01T03:01:55.544Z,5.37
2019-03-01T03:04:23.827Z,6.05
2019-03-01T03:06:54.034Z,4.07
2019-03-01T03:09:22.322Z,6.00
2019-03-01T03:11:50.605Z,4.60
2019-03-01T03:14:18.872Z,4.90
2019-03-01T03:16:47.148Z,7.12
2019-03-01T03:19:15.525Z,6.30
2019-03-01T03:21:43.904Z,5.25
2019-03-01T03:24:12.189Z,3.83
2019-03-01T03:26:40.572Z,6.28
2019-03-01T03:29:09.019Z,4.55
2019-03-01T03:31:37.299Z,6.78
2019-03-01T03:34:05.520Z,7.32
2019-03-01T03:36:33.776Z,5.80
2019-03-01T03:39:02.587Z,4.95
2019-03-01T03:41:30.920Z,6.12
2019-03-01T03:43:59.202Z,6.43
2019-03-01T03:46:27.580Z,6.85
2019-03-01T03:48:55.856Z,6.03
2019-03-01T03:51:24.131Z,4.40
2019-03-01T03:53:52.416Z,4.87
2019-03-01T03:56:20.684Z,5.85
2019-03-01T03:58:48.967Z,5.80
2019-03-01T04:01:17.226Z,8.60
2019-03-01T04:03:45.505Z,5.87
2019-03-01T04:06:13.767Z,5.25
2019-03-01T04:08:42.055Z,5.45
2019-03-01T04:11:10.332Z,6.47
2019-03-01T04:13:38.627Z,6.50
2019-03-01T04:16:06.897Z,6.50
2019-03-01T04:18:35.267Z,5.18
2019-03-01T04:21:03.542Z,4.75
2019-03-01T04:23:31.830Z,6.03
2019-03-01T04:26:00.104Z,8.30
2019-03-01T04:28:28.459Z,6.23
2019-03-01T04:30:56.697Z,7.17
2019-03-01T04:33:24.984Z,7.28
2019-03-01T04:35:53.269Z,7.28
2019-03-01T04:38:21.556Z,7.85
2019-03-01T04:40:49.820Z,7.15
2019-03-01T04:43:18.108Z,7.20
2019-03-01T04:45:46.372Z,7.78
2019-03-01T04:48:14.650Z,7.30
2019-03-01T04:50:42.939Z,6.87
2019-03-01T04:53:11.216Z,7.95
2019-03-01T04:55:39.479Z,7.47
2019-03-01T04:58:07.872Z,5.43
2019-03-01T05:00:36.151Z,5.18
2019-03-01T05:03:04.436Z,6.28
2019-03-01T05:05:32.791Z,8.27
2019-03-01T05:08:01.591Z,9.13
2019-03-01T05:10:29.860Z,8.85
2019-03-01T05:12:58.227Z,8.68
2019-03-01T05:15:26.512Z,7.82
2019-03-01T05:17:54.797Z,12.07
2019-03-01T05:20:23.069Z,9.45
2019-03-01T05:22:51.442Z,9.82
2019-03-01T05:25:19.830Z,11.05
2019-03-01T05:27:48.110Z,8.98
2019-03-01T05:30:16.425Z,5.53
2019-03-01T05:32:44.747Z,9.82
2019-03-01T05:35:13.034Z,10.18
2019-03-01T05:37:41.607Z,7.20
2019-03-01T05:40:10.679Z,6.12
2019-03-01T05:42:38.958Z,6.53
2019-03-01T05:45:08.151Z,5.43
2019-03-01T05:47:36.433Z,8.77
2019-03-01T05:50:06.489Z,5.35
2019-03-01T05:52:33.013Z,7.00
2019-03-01T05:55:01.299Z,7.70
2019-03-01T05:57:31.193Z,6.50
2019-03-01T05:59:59.480Z,6.25
2019-03-01T06:05:26.856Z,7.50
2019-03-01T06:07:56.848Z,10.68
2019-03-01T06:10:27.900Z,6.60
2019-03-01T06:13:02.953Z,8.38
2019-03-01T06:15:38.892Z,8.38
2019-03-01T06:18:16.998Z,6.95
2019-03-01T06:20:55.263Z,7.10
2019-03-01T06:23:56.915Z,5.20
2019-03-01T06:26:26.549Z,6.87
2019-03-01T06:29:00.672Z,5.68
2019-03-01T06:32:01.515Z,7.05
2019-03-01T06:34:50.471Z,4.30
2019-03-01T06:37:24.621Z,5.95
2019-03-01T06:40:11.819Z,4.07
2019-03-01T06:42:49.595Z,4.53
2019-03-01T06:45:21.862Z,5.80
2019-03-01T06:47:50.113Z,5.50
2019-03-01T06:50:18.397Z,4.25
2019-03-01T06:52:46.696Z,4.60
2019-03-01T06:55:34.220Z,4.12
2019-03-01T06:58:02.463Z,4.60
2019-03-01T07:00:30.746Z,5.30
2019-03-01T07:02:59.016Z,4.82
2019-03-01T07:05:27.320Z,7.60
2019-03-01T07:07:55.699Z,3.33
2019-03-01T07:10:23.965Z,3.78
2019-03-01T07:12:52.351Z,5.47
2019-03-01T07:15:20.614Z,5.50
2019-03-01T07:17:49.004Z,5.37
2019-03-01T07:20:17.272Z,5.93
2019-03-01T07:22:45.651Z,3.65
2019-03-01T07:25:13.952Z,2.42
2019-03-01T07:27:42.307Z,2.90
2019-03-01T07:30:10.690Z,2.42
2019-03-01T07:32:38.979Z,1.83
2019-03-01T07:35:08.105Z,2.30
2019-03-01T07:37:37.248Z,2.37
2019-03-01T07:40:05.523Z,4.10
2019-03-01T07:42:33.801Z,2.10
2019-03-01T07:45:02.072Z,2.37
2019-03-01T07:47:30.355Z,3.30
2019-03-01T07:49:58.738Z,2.75
2019-03-01T07:52:27.112Z,1.87
2019-03-01T07:54:55.395Z,1.60
2019-03-01T07:57:23.755Z,3.55
2019-03-01T07:59:52.043Z,3.05
2019-03-01T08:02:20.436Z,1.87
2019-03-01T08:04:48.703Z,3.17
2019-03-01T08:07:17.065Z,1.77
2019-03-01T08:09:45.690Z,3.00
2019-03-01T08:12:13.719Z,1.67
2019-03-01T08:14:41.997Z,1.87
2019-03-01T08:17:10.278Z,2.53
2019-03-01T08:19:38.554Z,2.20
2019-03-01T08:22:06.932Z,1.45
2019-03-01T08:24:35.204Z,2.72
2019-03-01T08:27:06.533Z,2.42
2019-03-01T08:29:34.067Z,3.03
2019-03-01T08:32:00.141Z,2.35
2019-03-01T08:34:28.425Z,2.75
2019-03-01T08:36:56.700Z,2.90
2019-03-01T08:39:25.001Z,1.70
2019-03-01T08:42:00.036Z,2.58
2019-03-01T08:44:24.270Z,1.40
2019-03-01T08:46:51.307Z,2.75
2019-03-01T08:49:19.585Z,2.17
2019-03-01T08:51:47.856Z,2.00
2019-03-01T08:54:16.141Z,4.60
2019-03-01T08:56:46.375Z,2.97
2019-03-01T08:59:14.104Z,2.85
2019-03-01T09:01:41.780Z,2.65
2019-03-01T09:04:09.545Z,1.90
2019-03-01T09:06:37.820Z,1.70
2019-03-01T09:09:06.109Z,3.10
2019-03-01T09:11:34.382Z,1.90
2019-03-01T09:14:02.678Z,1.67
2019-03-01T09:16:30.951Z,2.83
2019-03-01T09:18:59.436Z,2.75
2019-03-01T09:21:28.211Z,2.80
2019-03-01T09:23:56.264Z,3.00
2019-03-01T09:26:24.782Z,4.70
2019-03-01T09:28:53.131Z,2.92
2019-03-01T09:31:21.408Z,2.58
2019-03-01T09:33:49.781Z,2.12
2019-03-01T09:36:24.684Z,1.65
2019-03-01T09:38:53.031Z,2.45
2019-03-01T09:41:21.291Z,3.35
2019-03-01T09:43:49.586Z,2.70
2019-03-01T09:46:20.892Z,3.23
2019-03-01T09:48:49.537Z,2.70
2019-03-01T09:51:15.849Z,2.20
2019-03-01T09:53:42.740Z,2.92
2019-03-01T09:56:12.898Z,1.55
2019-03-01T09:58:39.394Z,1.48
2019-03-01T10:01:16.066Z,1.67
2019-03-01T10:03:44.342Z,1.73
2019-03-01T10:06:12.595Z,2.53
2019-03-01T10:08:40.876Z,2.30
2019-03-01T10:11:09.177Z,1.20
2019-03-01T10:13:37.449Z,1.55
2019-03-01T10:16:05.732Z,2.75
2019-03-01T10:18:34.089Z,2.78
2019-03-01T10:21:02.571Z,1.30
2019-03-01T10:23:30.840Z,2.45
2019-03-01T10:25:59.124Z,1.50
2019-03-01T10:28:27.499Z,1.30
2019-03-01T10:30:55.880Z,2.87
2019-03-01T10:33:24.174Z,2.00
2019-03-01T10:35:52.461Z,2.40
2019-03-01T10:38:20.749Z,2.10
2019-03-01T10:40:49.901Z,4.90
2019-03-01T10:43:18.180Z,1.77
2019-03-01T10:45:46.456Z,1.87
2019-03-01T10:48:14.738Z,1.77
2019-03-01T10:50:43.023Z,2.92
2019-03-01T10:53:11.389Z,1.55
2019-03-01T10:55:39.749Z,4.03
2019-03-01T10:58:08.037Z,1.98
2019-03-01T11:00:36.306Z,1.25
2019-03-01T11:03:04.704Z,1.55
2019-03-01T11:05:33.057Z,2.85
2019-03-01T11:08:01.334Z,3.58
2019-03-01T11:10:37.173Z,3.28
2019-03-01T11:13:07.011Z,1.95
2019-03-01T11:15:35.381Z,4.28
2019-03-01T11:18:03.645Z,6.15
2019-03-01T11:20:31.939Z,1.50
2019-03-01T11:23:00.224Z,3.35
2019-03-01T11:25:28.593Z,2.40
2019-03-01T11:27:56.884Z,2.25
2019-03-01T11:30:26.869Z,2.83
2019-03-01T11:32:55.196Z,2.03
2019-03-01T11:35:23.451Z,1.40
2019-03-01T11:37:51.730Z,0.95
2019-03-01T11:40:26.980Z,1.15
2019-03-01T11:42:56.056Z,1.70
2019-03-01T11:45:24.335Z,3.22
2019-03-01T11:47:52.599Z,1.17
2019-03-01T11:50:20.868Z,1.50
2019-03-01T11:52:49.245Z,1.40
2019-03-01T11:55:17.523Z,1.08
2019-03-01T11:57:45.879Z,2.35
2019-03-01T12:00:14.156Z,0.70
2019-03-01T12:02:42.431Z,1.40
2019-03-01T12:05:10.715Z,1.00
2019-03-01T12:07:38.985Z,0.50
2019-03-01T12:10:09.011Z,0.65
2019-03-01T12:12:37.299Z,1.12
2019-03-01T12:15:05.544Z,1.00
2019-03-01T12:17:33.821Z,1.67
2019-03-01T12:20:02.106Z,0.70
2019-03-01T12:22:30.412Z,1.30
2019-03-01T12:24:58.678Z,1.05
2019-03-01T12:27:28.493Z,1.23
2019-03-01T12:29:56.860Z,1.40
2019-03-01T12:32:25.099Z,1.20
2019-03-01T12:34:53.391Z,1.25
2019-03-01T12:37:21.669Z,1.80
2019-03-01T12:39:50.048Z,1.45
2019-03-01T12:42:18.317Z,1.15
2019-03-01T12:44:46.608Z,1.87
2019-03-01T12:47:14.972Z,11.80
2019-03-01T12:49:43.256Z,7.45
2019-03-01T12:52:11.523Z,2.78
2019-03-01T12:54:39.904Z,1.60
2019-03-01T12:57:08.174Z,1.20
2019-03-01T12:59:36.463Z,1.30
2019-03-01T13:02:04.735Z,1.60
2019-03-01T13:04:32.992Z,1.57
2019-03-01T13:07:01.265Z,1.10
2019-03-01T13:09:29.548Z,1.50
2019-03-01T13:11:57.826Z,1.40
2019-03-01T13:14:26.104Z,1.90
2019-03-01T13:16:54.376Z,1.83
2019-03-01T13:19:23.368Z,1.20
2019-03-01T13:21:51.023Z,1.30
2019-03-01T13:24:19.325Z,1.30
2019-03-01T13:26:47.695Z,1.02
2019-03-01T13:29:19.036Z,1.08
2019-03-01T13:31:47.170Z,1.30
2019-03-01T13:34:13.876Z,1.00
2019-03-01T13:36:41.019Z,1.12
2019-03-01T13:39:10.422Z,1.12
2019-03-01T13:41:38.063Z,1.40
2019-03-01T13:44:06.328Z,2.45
2019-03-01T13:46:34.604Z,2.53
2019-03-01T13:49:02.900Z,3.55
2019-03-01T13:51:31.281Z,3.62
2019-03-01T13:53:59.574Z,2.12
2019-03-01T13:56:28.636Z,1.92
2019-03-01T13:58:59.564Z,1.37
2019-03-01T14:01:27.072Z,1.80
2019-03-01T14:03:53.595Z,1.48
2019-03-01T14:06:22.763Z,1.10
2019-03-01T14:08:51.064Z,1.92
2019-03-01T14:11:23.261Z,1.40
2019-03-01T14:13:50.780Z,1.60
2019-03-01T14:16:17.099Z,1.65
2019-03-01T14:18:44.447Z,2.03
2019-03-01T14:21:12.726Z,2.90
2019-03-01T14:23:41.016Z,2.37
2019-03-01T14:26:09.289Z,2.07
2019-03-01T14:28:38.033Z,3.17
2019-03-01T14:31:07.459Z,2.78
2019-03-01T14:33:34.124Z,2.65
2019-03-01T14:36:02.722Z,1.90
2019-03-01T14:38:31.029Z,1.70
2019-03-01T14:41:00.571Z,2.00
2019-03-01T14:43:27.570Z,1.50
2019-03-01T14:45:55.883Z,2.62
2019-03-01T14:48:24.256Z,1.40
2019-03-01T14:50:52.534Z,1.50
2019-03-01T14:53:20.908Z,2.28
2019-03-01T14:55:49.966Z,2.53
2019-03-01T14:58:22.320Z,2.67
2019-03-01T15:00:51.240Z,1.58
2019-03-01T15:03:32.937Z,1.37
2019-03-01T15:06:01.216Z,2.25
2019-03-01T15:08:29.512Z,1.55
2019-03-01T15:10:57.898Z,1.67
2019-03-01T15:13:27.811Z,1.40
2019-03-01T15:15:54.544Z,1.50
2019-03-01T15:18:24.934Z,1.90
2019-03-01T15:20:51.064Z,1.95
2019-03-01T15:23:20.820Z,1.98
2019-03-01T15:25:48.661Z,1.25
2019-03-01T15:28:16.632Z,2.10
2019-03-01T15:30:46.438Z,5.07
2019-03-01T15:33:12.664Z,7.97
2019-03-01T15:35:40.942Z,3.67
2019-03-01T15:38:10.860Z,3.53
2019-03-01T15:40:37.583Z,1.70
2019-03-01T15:43:05.969Z,2.12
2019-03-01T15:45:36.702Z,3.08
2019-03-01T15:48:03.069Z,2.42
2019-03-01T15:50:30.904Z,2.55
2019-03-01T15:52:59.192Z,3.80
2019-03-01T15:55:29.578Z,4.45
2019-03-01T15:57:56.412Z,2.70
2019-03-01T16:00:25.512Z,3.45
2019-03-01T16:02:54.000Z,3.58
2019-03-01T16:05:21.477Z,3.20
2019-03-01T16:07:49.758Z,3.00
2019-03-01T16:10:18.940Z,2.37
2019-03-01T16:12:47.419Z,2.17
2019-03-01T16:15:15.709Z,3.22
2019-03-01T16:17:43.968Z,3.33
2019-03-01T16:20:14.001Z,2.42
2019-03-01T16:22:42.303Z,4.45
2019-03-01T16:25:11.361Z,5.32
2019-03-01T16:27:39.639Z,5.85
2019-03-01T16:30:08.733Z,6.85
2019-03-01T16:32:37.140Z,5.95
2019-03-01T16:35:05.384Z,3.78
2019-03-01T16:37:33.768Z,2.85
2019-03-01T16:40:02.039Z,2.80
2019-03-01T16:42:38.196Z,3.00
2019-03-01T16:44:59.201Z,3.70
2019-03-01T16:47:27.459Z,3.47
2019-03-01T16:49:55.737Z,3.28
2019-03-01T16:52:26.466Z,3.22
2019-03-01T16:54:52.782Z,3.70
2019-03-01T16:57:20.584Z,4.60
2019-03-01T16:59:48.864Z,5.50
2019-03-01T17:02:17.150Z,14.98
2019-03-01T17:04:45.509Z,28.10
2019-03-01T17:07:13.887Z,28.95
2019-03-01T17:09:42.183Z,20.62
2019-03-01T17:12:10.466Z,12.18
2019-03-01T17:14:39.660Z,12.65
2019-03-01T17:17:07.959Z,6.05
2019-03-01T17:19:36.287Z,3.30
2019-03-01T17:22:04.567Z,3.25
2019-03-01T17:24:32.860Z,3.55
2019-03-01T17:27:02.093Z,4.12
2019-03-01T17:29:31.547Z,4.45
2019-03-01T17:31:58.783Z,3.25
2019-03-01T17:34:29.304Z,3.75
2019-03-01T17:36:55.092Z,3.60
2019-03-01T17:39:25.182Z,3.90
2019-03-01T17:41:51.655Z,3.72
2019-03-01T17:44:19.950Z,7.07
2019-03-01T17:46:48.219Z,6.18
2019-03-01T17:49:16.500Z,4.40
2019-03-01T17:51:44.776Z,5.50
2019-03-01T17:54:13.057Z,9.73
2019-03-01T17:56:41.330Z,6.10
2019-03-01T17:59:11.846Z,5.47
2019-03-01T18:01:38.999Z,5.28
2019-03-01T18:04:06.199Z,4.72
2019-03-01T18:06:34.483Z,5.25
2019-03-01T18:09:03.520Z,6.30
2019-03-01T18:11:31.860Z,6.70
2019-03-01T18:14:00.792Z,4.97
2019-03-01T18:16:30.554Z,5.20
2019-03-01T18:18:56.743Z,6.12
2019-03-01T18:21:25.024Z,5.55
2019-03-01T18:23:53.389Z,5.57
2019-03-01T18:26:23.024Z,5.78
2019-03-01T18:28:49.939Z,5.00
2019-03-01T18:31:18.211Z,4.97
2019-03-01T18:33:46.484Z,5.50
2019-03-01T18:36:14.766Z,5.60
2019-03-01T18:38:43.134Z,4.93
2019-03-01T18:41:11.519Z,4.65
2019-03-01T18:43:39.798Z,4.10
2019-03-01T18:46:08.088Z,4.28
2019-03-01T18:48:36.452Z,5.30
2019-03-01T18:51:06.929Z,7.68
2019-03-01T18:53:33.156Z,14.15
2019-03-01T18:56:01.456Z,16.60
2019-03-01T18:58:29.767Z,15.27
2019-03-01T19:00:58.132Z,6.97
2019-03-01T19:03:26.404Z,4.62
2019-03-01T19:05:54.694Z,5.10
2019-03-01T19:08:23.030Z,5.07
2019-03-01T19:10:54.236Z,4.85
2019-03-01T19:13:20.749Z,6.00
2019-03-01T19:15:54.303Z,6.47
2019-03-01T19:18:17.712Z,6.50
2019-03-01T19:20:53.724Z,5.55
2019-03-01T19:23:22.021Z,18.58
2019-03-01T19:25:50.306Z,11.80
2019-03-01T19:28:18.600Z,10.35
2019-03-01T19:30:49.051Z,7.65
2019-03-01T19:33:17.172Z,7.87
2019-03-01T19:35:43.648Z,8.38
2019-03-01T19:38:11.919Z,8.70
2019-03-01T19:40:43.471Z,9.93
2019-03-01T19:43:10.238Z,11.18
2019-03-01T19:45:37.503Z,14.05
2019-03-01T19:48:05.217Z,9.15
2019-03-01T19:50:33.508Z,11.07
2019-03-01T19:53:02.559Z,8.88
2019-03-01T19:55:30.810Z,11.53
2019-03-01T19:57:59.835Z,11.93
2019-03-01T20:00:29.031Z,11.65
2019-03-01T20:02:57.319Z,9.13
2019-03-01T20:05:35.514Z,10.10
2019-03-01T20:08:03.895Z,9.95
2019-03-01T20:10:32.693Z,10.23
2019-03-01T20:13:01.060Z,8.40
2019-03-01T20:15:29.322Z,9.83
2019-03-01T20:17:57.600Z,8.33
2019-03-01T20:20:25.873Z,9.73
2019-03-01T20:22:55.250Z,8.48
2019-03-01T20:25:22.533Z,9.65
2019-03-01T20:27:50.803Z,8.90
2019-03-01T20:30:28.730Z,9.73
2019-03-01T20:32:51.096Z,12.48
2019-03-01T20:35:18.912Z,9.53
2019-03-01T20:37:47.180Z,16.73
2019-03-01T20:40:15.460Z,23.10
2019-03-01T20:42:43.747Z,18.20
2019-03-01T20:45:16.756Z,17.87
2019-03-01T20:47:45.815Z,19.45
2019-03-01T20:50:15.657Z,17.52
2019-03-01T20:52:42.471Z,18.77
2019-03-01T20:55:10.849Z,14.68
2019-03-01T20:57:39.130Z,13.27
2019-03-01T21:00:13.539Z,12.82
2019-03-01T21:02:41.820Z,11.82
2019-03-01T21:05:10.196Z,12.52
2019-03-01T21:07:38.580Z,13.40
2019-03-01T21:10:12.547Z,11.25
2019-03-01T21:12:38.720Z,11.60
2019-03-01T21:15:07.015Z,11.23
2019-03-01T21:17:36.081Z,11.82
2019-03-01T21:20:04.368Z,12.45
2019-03-01T21:22:32.651Z,12.60
2019-03-01T21:25:03.231Z,12.85
2019-03-01T21:27:29.991Z,12.00
2019-03-01T21:29:58.320Z,14.02
2019-03-01T21:32:27.376Z,16.73
2019-03-01T21:34:55.675Z,15.05
2019-03-01T21:37:24.732Z,15.07
2019-03-01T21:39:55.603Z,14.82
2019-03-01T21:42:21.377Z,15.90
2019-03-01T21:44:49.764Z,15.35
2019-03-01T21:47:18.079Z,18.10
2019-03-01T21:49:46.443Z,16.30
2019-03-01T21:52:14.692Z,19.30
2019-03-01T21:54:42.967Z,19.27
2019-03-01T21:57:12.064Z,18.15
2019-03-01T21:59:40.446Z,19.37
2019-03-01T22:02:08.749Z,17.67
2019-03-01T22:04:37.392Z,18.83
2019-03-01T22:07:05.393Z,17.00
2019-03-01T22:09:33.679Z,16.05
2019-03-01T22:12:02.734Z,17.25
2019-03-01T22:14:31.028Z,17.05
2019-03-01T22:16:59.397Z,14.63
2019-03-01T22:19:30.487Z,16.65
2019-03-01T22:21:58.623Z,18.33
2019-03-01T22:24:26.572Z,17.02
2019-03-01T22:26:53.616Z,17.45
2019-03-01T22:29:21.927Z,15.85
2019-03-01T22:31:50.996Z,16.50
2019-03-01T22:34:19.312Z,17.83
2019-03-01T22:36:49.508Z,14.85
2019-03-01T22:39:16.656Z,16.98
2019-03-01T22:41:44.301Z,17.30
2019-03-01T22:44:12.594Z,16.60
2019-03-01T22:46:40.897Z,15.95
2019-03-01T22:49:09.229Z,16.58
2019-03-01T22:51:37.521Z,16.42
2019-03-01T22:54:05.880Z,17.52
2019-03-01T22:56:34.188Z,16.80
2019-03-01T22:59:02.464Z,17.23
2019-03-01T23:01:32.728Z,16.00
2019-03-01T23:03:59.841Z,17.90
2019-03-01T23:06:29.022Z,17.08
2019-03-01T23:08:57.280Z,17.10
2019-03-01T23:11:28.662Z,19.03
2019-03-01T23:13:55.721Z,20.27
2019-03-01T23:16:22.091Z,21.50
2019-03-01T23:18:56.788Z,23.27
2019-03-01T23:21:18.638Z,21.55
2019-03-01T23:23:46.925Z,22.33
2019-03-01T23:26:18.425Z,20.48
2019-03-01T23:28:43.939Z,22.20
2019-03-01T23:31:11.847Z,19.90
2019-03-01T23:33:40.131Z,20.77
2019-03-01T23:36:08.508Z,21.50
2019-03-01T23:38:36.756Z,20.93
2019-03-01T23:41:07.753Z,22.20
2019-03-01T23:43:33.304Z,19.67
2019-03-01T23:46:01.714Z,21.08
2019-03-01T23:48:29.959Z,23.13
2019-03-01T23:50:58.255Z,24.83
2019-03-01T23:53:27.471Z,25.80
2019-03-01T23:55:55.731Z,21.98
2019-03-01T23:58:23.080Z,23.52
